Time;durP1;ratioP1;P1;durP2;ratioP2;P2;SDS_P1;SDS_P2;PMS_P1;PMS_P2;Temp;Humidity;BMP_temperature;BMP_pressure;BME280_temperature;BME280_humidity;BME280_pressure;Samples;Min_cycle;Max_cycle;Signal;HPM_P1;HPM_P2
2022/11/10 00:00:53;;;;;;;8.93;3.45;;;11.40;52.80;;;;;;7357021;19;20015;-69
2022/11/10 00:03:23;;;;;;;9.18;3.55;;;11.40;52.00;;;;;;7379275;19;20015;-70
2022/11/10 00:05:56;;;;;;;5.57;3.08;;;11.40;52.90;;;;;;7359424;19;20030;-69
2022/11/10 00:08:25;;;;;;;7.95;3.50;;;11.40;52.90;;;;;;7353274;19;20385;-70
2022/11/10 00:11:05;;;;;;;7.05;3.25;;;11.40;52.90;;;;;;7364400;19;20033;-69
2022/11/10 00:16:59;;;;;;;7.25;3.42;;;11.30;52.50;;;;;;7361989;19;20382;-70
2022/11/10 00:19:09;;;;;;;8.45;3.53;;;11.30;52.70;;;;;;7361156;19;20518;-71
2022/11/10 00:21:41;;;;;;;9.30;4.20;;;11.30;52.60;;;;;;7365923;19;20055;-70
2022/11/10 00:24:11;;;;;;;7.43;3.75;;;11.30;52.00;;;;;;7384022;19;20010;-69
2022/11/10 00:26:41;;;;;;;7.47;3.35;;;11.30;52.50;;;;;;7362805;19;20533;-70
2022/11/10 00:29:10;;;;;;;6.72;3.25;;;11.30;52.60;;;;;;7360118;19;20014;-70
2022/11/10 00:31:41;;;;;;;7.80;3.60;;;11.30;52.80;;;;;;7365715;19;20029;-70
2022/11/10 00:34:14;;;;;;;13.68;3.63;;;11.20;52.80;;;;;;7363850;19;20006;-70
2022/11/10 00:36:47;;;;;;;7.60;3.75;;;11.20;53.40;;;;;;7362034;19;20474;-70
2022/11/10 00:39:16;;;;;;;6.35;3.45;;;11.20;53.80;;;;;;7380845;19;20475;-70
2022/11/10 00:41:46;;;;;;;9.23;3.88;;;11.20;53.90;;;;;;7364431;19;20021;-70
2022/11/10 00:44:16;;;;;;;8.93;3.60;;;11.10;54.50;;;;;;7360647;19;20011;-70
2022/11/10 00:46:46;;;;;;;7.60;3.92;;;11.10;54.50;;;;;;7361061;19;20015;-71
2022/11/10 00:49:16;;;;;;;7.93;3.85;;;11.10;54.50;;;;;;7360060;19;20006;-70
2022/11/10 00:51:48;;;;;;;10.48;3.83;;;11.00;54.40;;;;;;7365011;19;20019;-70
2022/11/10 00:54:18;;;;;;;9.60;3.53;;;11.00;54.60;;;;;;7383255;19;20047;-71
2022/11/10 00:56:48;;;;;;;9.40;3.50;;;11.00;54.50;;;;;;7360153;19;20019;-70
2022/11/10 00:59:18;;;;;;;8.68;3.97;;;11.00;54.50;;;;;;7358219;19;20857;-70
2022/11/10 01:01:48;;;;;;;12.50;4.00;;;10.90;54.40;;;;;;7362944;19;20010;-70
2022/11/10 01:04:17;;;;;;;10.30;3.97;;;10.80;54.30;;;;;;7361842;19;20482;-69
2022/11/10 01:06:51;;;;;;;8.70;3.65;;;10.80;55.20;;;;;;7361929;19;20007;-69
2022/11/10 01:09:21;;;;;;;12.50;3.40;;;10.80;55.70;;;;;;7382433;19;20358;-69
2022/11/10 01:11:51;;;;;;;11.90;4.10;;;10.80;55.70;;;;;;7363229;19;20013;-70
2022/11/10 01:14:21;;;;;;;10.25;4.22;;;10.80;55.80;;;;;;7360679;19;20020;-70
2022/11/10 01:16:51;;;;;;;9.75;3.55;;;10.90;55.90;;;;;;7361631;19;20006;-70
2022/11/10 01:19:20;;;;;;;5.97;3.40;;;10.90;56.00;;;;;;7359983;19;20470;-70
2022/11/10 01:21:54;;;;;;;12.10;4.10;;;10.90;55.90;;;;;;7363669;19;20011;-69
2022/11/10 01:24:24;;;;;;;8.75;4.18;;;10.90;55.80;;;;;;7385190;19;20471;-70
2022/11/10 01:26:54;;;;;;;7.60;3.22;;;10.90;55.70;;;;;;7361041;19;20030;-69
2022/11/10 01:29:24;;;;;;;7.97;3.85;;;10.90;55.00;;;;;;7359072;19;20003;-70
2022/11/10 01:31:53;;;;;;;9.40;3.78;;;10.80;54.60;;;;;;7364360;19;20454;-70
2022/11/10 01:34:24;;;;;;;11.43;4.07;;;10.80;54.90;;;;;;7364442;19;20029;-70
2022/11/10 01:36:56;;;;;;;10.07;3.78;;;10.80;54.90;;;;;;7359374;19;20605;-69
2022/11/10 01:39:26;;;;;;;10.80;4.03;;;10.80;54.70;;;;;;7380922;19;20571;-69
2022/11/10 01:41:55;;;;;;;11.77;4.57;;;10.80;54.70;;;;;;7362298;19;20011;-68
2022/11/10 01:44:27;;;;;;;10.20;4.10;;;10.70;54.60;;;;;;7362568;19;20834;-69
2022/11/10 01:46:57;;;;;;;7.57;4.05;;;10.80;55.10;;;;;;7359915;19;20011;-69
2022/11/10 01:49:31;;;;;;;11.55;4.43;;;10.70;55.40;;;;;;7359002;19;20006;-70
2022/11/10 01:52:08;;;;;;;12.95;4.60;;;10.70;55.50;;;;;;7360917;19;20010;-70
2022/11/10 01:54:40;;;;;;;8.57;4.30;;;10.70;55.70;;;;;;7363673;19;20024;-71
2022/11/10 01:57:14;;;;;;;9.15;4.20;;;10.70;55.70;;;;;;7381263;19;20014;-70
2022/11/10 01:59:47;;;;;;;15.60;4.65;;;10.60;56.00;;;;;;7357369;19;20471;-70
2022/11/10 02:02:24;;;;;;;7.78;3.78;;;10.60;56.30;;;;;;7360231;19;20386;-70
2022/11/10 02:05:03;;;;;;;10.48;4.30;;;10.50;56.70;;;;;;7363438;19;20480;-69
2022/11/10 02:07:36;;;;;;;11.00;4.15;;;10.50;56.60;;;;;;7359216;19;20011;-70
2022/11/10 02:10:15;;;;;;;12.95;4.10;;;10.50;56.60;;;;;;7358110;19;20011;-70
2022/11/10 02:12:45;;;;;;;13.52;4.63;;;10.50;57.00;;;;;;7359816;19;20018;-70
2022/11/10 02:15:17;;;;;;;11.93;4.47;;;10.40;57.10;;;;;;7383613;19;20064;-70
2022/11/10 02:17:48;;;;;;;9.65;4.32;;;10.30;57.40;;;;;;7358680;19;20007;-69
2022/11/10 02:20:20;;;;;;;11.63;4.57;;;10.30;57.70;;;;;;7358563;19;20375;-71
2022/11/10 02:22:53;;;;;;;16.67;6.18;;;10.30;58.00;;;;;;7359162;19;20011;-69
2022/11/10 02:25:24;;;;;;;13.70;5.68;;;10.30;57.70;;;;;;7361840;19;20014;-70
2022/11/10 02:27:54;;;;;;;9.93;5.72;;;10.20;57.70;;;;;;7358457;19;20837;-70
2022/11/10 02:30:24;;;;;;;12.57;6.15;;;10.20;57.70;;;;;;7379123;19;20020;-70
2022/11/10 02:32:56;;;;;;;12.30;6.80;;;10.20;57.60;;;;;;7358583;19;20011;-70
2022/11/10 02:35:26;;;;;;;15.48;7.32;;;10.20;57.60;;;;;;7360923;19;20018;-70
2022/11/10 02:37:58;;;;;;;12.88;6.75;;;10.20;57.70;;;;;;7357579;19;20379;-69
2022/11/10 02:40:28;;;;;;;15.25;7.53;;;10.10;57.70;;;;;;7358121;19;20014;-69
2022/11/10 02:42:58;;;;;;;18.40;7.63;;;10.10;57.90;;;;;;7359455;19;20059;-69
2022/11/10 02:45:28;;;;;;;13.60;6.90;;;10.00;58.50;;;;;;7382991;19;20018;-70
2022/11/10 02:47:58;;;;;;;14.15;7.35;;;10.00;59.10;;;;;;7359092;19;20018;-68
2022/11/10 02:50:27;;;;;;;11.75;7.90;;;10.00;59.50;;;;;;7356397;19;20021;-69
2022/11/10 02:53:00;;;;;;;16.75;7.72;;;10.00;60.00;;;;;;7359114;19;20045;-70
2022/11/10 02:55:29;;;;;;;18.20;9.07;;;10.00;59.60;;;;;;7360769;19;20057;-70
2022/11/10 02:58:00;;;;;;;19.45;9.05;;;9.90;60.80;;;;;;7358149;19;20015;-69
2022/11/10 03:00:29;;;;;;;15.77;8.52;;;9.90;61.40;;;;;;7379493;19;20102;-70
2022/11/10 03:03:00;;;;;;;19.67;9.27;;;9.90;61.50;;;;;;7358796;19;20042;-70
2022/11/10 03:05:31;;;;;;;14.05;7.28;;;9.90;61.90;;;;;;7359501;19;20105;-70
2022/11/10 03:08:05;;;;;;;11.25;7.13;;;9.90;62.10;;;;;;7358781;19;20007;-69
2022/11/10 03:10:35;;;;;;;13.82;6.57;;;9.80;62.00;;;;;;7358195;19;20015;-70
2022/11/10 03:13:05;;;;;;;11.93;6.35;;;9.80;62.30;;;;;;7357949;19;20018;-69
2022/11/10 03:15:34;;;;;;;13.38;6.72;;;9.80;62.70;;;;;;7382138;19;20014;-70
2022/11/10 03:18:06;;;;;;;10.15;5.85;;;9.70;62.60;;;;;;7356744;19;20786;-70
2022/11/10 03:20:36;;;;;;;14.73;5.95;;;9.70;63.50;;;;;;7356609;19;20006;-70
2022/11/10 03:23:09;;;;;;;12.50;5.32;;;9.70;64.50;;;;;;7358122;19;20476;-70
2022/11/10 03:25:39;;;;;;;12.90;5.40;;;9.70;64.70;;;;;;7359985;19;20015;-70
2022/11/10 03:28:09;;;;;;;15.57;6.55;;;9.70;65.00;;;;;;7355139;19;20009;-69
2022/11/10 03:30:40;;;;;;;16.02;6.13;;;9.70;65.20;;;;;;7356528;19;20009;-70
2022/11/10 03:33:09;;;;;;;15.25;5.80;;;9.70;65.80;;;;;;7380187;19;20033;-70
2022/11/10 03:35:39;;;;;;;20.88;6.13;;;9.60;65.80;;;;;;7358702;19;20007;-70
2022/11/10 03:38:11;;;;;;;18.70;6.75;;;9.70;66.20;;;;;;7354720;19;20082;-70
2022/11/10 03:40:41;;;;;;;14.48;6.93;;;9.70;66.30;;;;;;7357537;19;20128;-70
2022/11/10 03:43:31;;;;;;;15.38;6.45;;;9.50;66.00;;;;;;7356978;19;20416;-70
2022/11/10 03:46:01;;;;;;;14.32;6.93;;;9.50;66.80;;;;;;7367715;19;20007;-70
2022/11/10 03:48:31;;;;;;;18.75;7.35;;;9.50;66.10;;;;;;7384209;19;20279;-70
2022/11/10 03:51:00;;;;;;;11.52;7.13;;;9.50;66.20;;;;;;7365947;19;20030;-70
2022/11/10 03:53:33;;;;;;;19.88;7.07;;;9.50;66.30;;;;;;7364048;19;20093;-70
2022/11/10 03:56:03;;;;;;;14.75;6.88;;;9.50;66.20;;;;;;7366697;19;20494;-70
2022/11/10 03:58:33;;;;;;;14.07;6.38;;;9.40;66.10;;;;;;7361780;19;20006;-71
2022/11/10 04:01:03;;;;;;;13.40;6.43;;;9.40;66.10;;;;;;7367460;19;20015;-71
2022/11/10 04:03:33;;;;;;;16.48;7.05;;;9.40;66.20;;;;;;7385142;19;20018;-70
2022/11/10 04:09:02;;;;;;;17.33;6.82;;;9.40;66.20;;;;;;7359293;19;20014;-71
2022/11/10 04:16:58;;;;;;;14.15;6.38;;;9.40;66.10;;;;;;7365804;19;20006;-69
2022/11/10 04:19:28;;;;;;;12.57;7.05;;;9.40;66.10;;;;;;7358983;19;20010;-68
2022/11/10 04:21:58;;;;;;;14.70;6.43;;;9.30;66.00;;;;;;7365076;19;20026;-68
2022/11/10 04:24:31;;;;;;;14.88;7.07;;;9.30;66.00;;;;;;7387263;19;20021;-69
2022/11/10 04:27:00;;;;;;;21.10;7.60;;;9.20;65.90;;;;;;7362675;19;20021;-69
2022/11/10 04:29:30;;;;;;;13.40;6.03;;;9.10;65.80;;;;;;7360496;19;20502;-69
2022/11/10 04:32:00;;;;;;;16.92;6.97;;;9.10;65.90;;;;;;7364939;19;20024;-68
2022/11/10 04:34:30;;;;;;;12.25;6.30;;;9.10;65.90;;;;;;7364532;19;20018;-69
2022/11/10 04:37:00;;;;;;;12.07;6.03;;;9.00;65.80;;;;;;7364305;19;20010;-69
2022/11/10 04:39:32;;;;;;;15.23;6.82;;;9.00;65.80;;;;;;7380031;19;20010;-70
2022/11/10 04:42:02;;;;;;;14.35;6.43;;;9.00;66.00;;;;;;7363359;19;20488;-70
2022/11/10 04:44:32;;;;;;;12.70;6.65;;;8.90;65.80;;;;;;7364640;19;20432;-71
2022/11/10 04:47:01;;;;;;;12.43;6.47;;;8.90;65.80;;;;;;7363849;19;20007;-70
2022/11/10 04:49:37;;;;;;;15.95;6.63;;;8.80;65.80;;;;;;7359510;19;20077;-70
2022/11/10 04:52:07;;;;;;;19.15;7.10;;;8.80;66.00;;;;;;7362164;19;20022;-70
2022/11/10 04:54:39;;;;;;;13.13;5.82;;;8.80;66.10;;;;;;7368799;19;20038;-70
2022/11/10 04:57:09;;;;;;;13.98;6.18;;;8.80;66.30;;;;;;7382995;19;20363;-70
2022/11/10 04:59:39;;;;;;;13.35;6.15;;;8.80;66.30;;;;;;7357783;19;20505;-70
2022/11/10 05:02:09;;;;;;;17.90;6.47;;;8.80;66.30;;;;;;7362545;19;20018;-70
2022/11/10 05:04:39;;;;;;;14.40;7.55;;;8.80;66.40;;;;;;7363000;19;20022;-70
2022/11/10 05:07:09;;;;;;;16.85;6.65;;;8.80;66.30;;;;;;7363564;19;20014;-70
2022/11/10 05:09:41;;;;;;;17.48;6.10;;;8.80;66.20;;;;;;7359346;19;20470;-70
2022/11/10 05:12:11;;;;;;;17.35;6.70;;;8.80;66.10;;;;;;7384575;19;20014;-70
2022/11/10 05:14:41;;;;;;;14.85;6.22;;;8.80;65.80;;;;;;7364617;19;20019;-71
2022/11/10 05:17:11;;;;;;;15.70;6.72;;;8.70;65.60;;;;;;7361778;19;20458;-69
2022/11/10 05:19:41;;;;;;;26.10;12.93;;;8.70;65.50;;;;;;7358087;19;20010;-69
2022/11/10 05:22:10;;;;;;;13.48;6.47;;;8.70;65.50;;;;;;7361507;19;20042;-70
2022/11/10 05:24:43;;;;;;;11.15;7.05;;;8.70;65.50;;;;;;7363875;19;20010;-70
2022/11/10 05:27:13;;;;;;;16.02;6.18;;;8.60;65.40;;;;;;7382112;19;20022;-70
2022/11/10 05:29:43;;;;;;;13.73;6.65;;;8.60;65.30;;;;;;7357696;19;20576;-70
2022/11/10 05:32:13;;;;;;;10.98;6.45;;;8.60;65.30;;;;;;7361615;19;21130;-69
2022/11/10 05:34:42;;;;;;;14.18;6.85;;;8.60;65.20;;;;;;7363831;19;20018;-70
2022/11/10 05:37:12;;;;;;;9.93;6.00;;;8.50;64.90;;;;;;7361643;19;20010;-70
2022/11/10 05:39:45;;;;;;;14.98;6.85;;;8.50;64.80;;;;;;7356913;19;20846;-70
2022/11/10 05:42:14;;;;;;;8.93;6.45;;;8.50;64.70;;;;;;7381825;19;20368;-70
2022/11/10 05:44:44;;;;;;;14.23;6.57;;;8.50;64.30;;;;;;7364157;19;20019;-70
2022/11/10 05:47:14;;;;;;;15.55;7.32;;;8.50;64.00;;;;;;7360652;19;20094;-70
2022/11/10 05:49:44;;;;;;;17.67;6.63;;;8.50;63.90;;;;;;7357309;19;20019;-70
2022/11/10 05:52:13;;;;;;;17.42;6.53;;;8.50;63.70;;;;;;7361574;19;20030;-69
2022/11/10 05:54:46;;;;;;;16.00;7.25;;;8.50;63.70;;;;;;7363714;19;20038;-70
2022/11/10 05:57:16;;;;;;;16.33;6.93;;;8.50;63.70;;;;;;7381325;19;20522;-70
2022/11/10 05:59:45;;;;;;;16.15;6.40;;;8.50;63.60;;;;;;7354807;19;20026;-70
2022/11/10 06:02:15;;;;;;;20.48;7.22;;;8.40;63.50;;;;;;7360223;19;20553;-70
2022/11/10 06:04:45;;;;;;;20.70;7.57;;;8.40;63.70;;;;;;7362076;19;20031;-70
2022/11/10 06:07:15;;;;;;;13.63;6.82;;;8.40;63.80;;;;;;7359146;19;20750;-70
2022/11/10 06:09:47;;;;;;;15.10;6.82;;;8.40;63.60;;;;;;7354862;19;20011;-70
2022/11/10 06:12:17;;;;;;;27.42;15.68;;;8.40;63.60;;;;;;7380505;19;20014;-68
2022/11/10 06:14:47;;;;;;;16.08;7.93;;;8.40;63.50;;;;;;7361972;19;20077;-70
2022/11/10 06:17:17;;;;;;;19.15;8.02;;;8.40;63.40;;;;;;7359821;19;20010;-70
2022/11/10 06:19:47;;;;;;;11.07;7.50;;;8.30;63.20;;;;;;7352933;19;20020;-70
2022/11/10 06:22:17;;;;;;;12.93;7.50;;;8.30;63.20;;;;;;7359360;19;20474;-69
2022/11/10 06:24:49;;;;;;;14.50;7.47;;;8.30;63.30;;;;;;7362141;19;20024;-70
2022/11/10 06:27:19;;;;;;;19.80;8.23;;;8.20;63.00;;;;;;7381397;19;20014;-71
2022/11/10 06:29:49;;;;;;;16.70;8.27;;;8.30;63.40;;;;;;7353565;19;20371;-70
2022/11/10 06:32:19;;;;;;;15.50;9.23;;;8.30;63.50;;;;;;7358792;19;20010;-70
2022/11/10 06:34:49;;;;;;;18.60;9.20;;;8.30;63.50;;;;;;7361009;19;20353;-70
2022/11/10 06:37:19;;;;;;;18.60;8.75;;;8.40;63.80;;;;;;7359790;19;20561;-71
2022/11/10 06:39:51;;;;;;;13.95;8.05;;;8.40;63.70;;;;;;7352175;19;20505;-70
2022/11/10 06:42:21;;;;;;;13.70;8.05;;;8.40;63.60;;;;;;7379611;19;20567;-71
2022/11/10 06:44:51;;;;;;;12.93;7.47;;;8.50;63.70;;;;;;7360801;19;20465;-70
2022/11/10 06:47:20;;;;;;;17.27;7.97;;;8.50;63.40;;;;;;7358368;19;20014;-70
2022/11/10 06:49:50;;;;;;;11.32;7.68;;;8.60;63.30;;;;;;7352995;19;20006;-69
2022/11/10 06:52:20;;;;;;;13.82;8.07;;;8.60;63.00;;;;;;7358609;19;20580;-71
2022/11/10 06:54:53;;;;;;;11.10;7.38;;;8.70;62.80;;;;;;7359495;19;20853;-69
2022/11/10 06:57:22;;;;;;;24.05;7.22;;;8.80;62.40;;;;;;7380804;19;20418;-70
2022/11/10 06:59:52;;;;;;;11.80;6.53;;;8.90;61.60;;;;;;7352887;19;20013;-70
2022/11/10 07:02:25;;;;;;;14.95;6.97;;;8.90;61.00;;;;;;7358284;19;20006;-69
2022/11/10 07:04:55;;;;;;;15.10;7.38;;;9.00;59.90;;;;;;7360699;19;20362;-70
2022/11/10 07:07:25;;;;;;;12.45;6.10;;;9.10;59.30;;;;;;7358130;19;20014;-70
2022/11/10 07:09:57;;;;;;;13.65;6.32;;;9.20;57.80;;;;;;7351055;19;20021;-71
2022/11/10 07:12:35;;;;;;;14.02;5.13;;;9.30;56.60;;;;;;7375994;19;20041;-71
2022/11/10 07:15:06;;;;;;;9.18;4.93;;;9.40;55.10;;;;;;7355204;19;20006;-70
2022/11/10 07:17:42;;;;;;;9.63;4.90;;;9.40;53.50;;;;;;7355132;19;20011;-69
2022/11/10 07:20:13;;;;;;;10.50;4.72;;;9.50;51.60;;;;;;7354813;19;20017;-69
2022/11/10 07:22:43;;;;;;;12.80;5.25;;;9.60;50.20;;;;;;7353273;19;20031;-70
2022/11/10 07:25:16;;;;;;;11.40;4.32;;;9.60;49.00;;;;;;7356461;19;20024;-71
2022/11/10 07:27:46;;;;;;;8.95;4.55;;;9.70;47.70;;;;;;7355546;19;20011;-70
2022/11/10 07:30:16;;;;;;;7.35;4.47;;;9.70;46.60;;;;;;7376876;19;20121;-70
2022/11/10 07:32:46;;;;;;;12.10;4.53;;;9.80;46.00;;;;;;7352259;19;20011;-69
2022/11/10 07:35:16;;;;;;;7.10;4.03;;;9.80;45.90;;;;;;7359449;19;20021;-69
2022/11/10 07:37:46;;;;;;;9.93;5.05;;;9.80;44.90;;;;;;7356854;19;20070;-69
2022/11/10 07:40:18;;;;;;;10.57;4.28;;;9.80;45.40;;;;;;7353411;19;20436;-69
2022/11/10 07:42:48;;;;;;;11.93;4.60;;;9.80;44.50;;;;;;7350782;19;20015;-70
2022/11/10 07:45:18;;;;;;;10.35;4.50;;;9.80;43.70;;;;;;7380483;19;20486;-70
2022/11/10 07:47:49;;;;;;;10.02;5.13;;;9.80;42.70;;;;;;7353775;19;20018;-70
2022/11/10 07:50:19;;;;;;;10.57;4.82;;;9.80;42.00;;;;;;7355011;19;20025;-70
2022/11/10 07:52:52;;;;;;;12.75;4.85;;;9.80;42.00;;;;;;7351894;19;20011;-70
2022/11/10 07:55:27;;;;;;;14.13;4.45;;;9.80;41.70;;;;;;7356783;19;20478;-70
2022/11/10 07:57:58;;;;;;;7.47;4.07;;;9.80;42.00;;;;;;7354226;19;20061;-70
2022/11/10 08:00:28;;;;;;;6.50;4.20;;;9.80;41.20;;;;;;7374275;19;20017;-69
2022/11/10 08:03:03;;;;;;;8.48;4.20;;;9.80;40.80;;;;;;7349167;19;20014;-70
2022/11/10 08:05:34;;;;;;;8.75;4.43;;;9.90;39.70;;;;;;7356334;19;20015;-70
2022/11/10 08:08:04;;;;;;;7.18;3.95;;;9.90;38.10;;;;;;7354179;19;20022;-71
2022/11/10 08:10:37;;;;;;;8.75;3.85;;;10.00;35.80;;;;;;7354571;19;20006;-69
2022/11/10 08:13:09;;;;;;;6.75;3.72;;;10.00;34.30;;;;;;7349757;19;20019;-71
2022/11/10 08:15:40;;;;;;;7.43;3.70;;;10.10;32.40;;;;;;7355831;19;20350;-70
2022/11/10 08:18:20;;;;;;;7.50;3.60;;;10.10;32.10;;;;;;7375424;19;20497;-71
2022/11/10 08:20:51;;;;;;;8.30;3.22;;;10.20;30.50;;;;;;7350325;19;20481;-70
2022/11/10 08:23:21;;;;;;;9.27;4.00;;;10.20;29.00;;;;;;7347615;19;20134;-71
2022/11/10 08:25:54;;;;;;;5.80;3.28;;;10.30;29.10;;;;;;7355390;19;20476;-71
2022/11/10 08:28:24;;;;;;;6.00;3.13;;;10.40;29.10;;;;;;7356150;19;20054;-70
2022/11/10 08:30:54;;;;;;;6.35;3.22;;;10.40;28.60;;;;;;7357238;19;20010;-71
2022/11/10 08:33:24;;;;;;;8.25;3.33;;;10.50;27.60;;;;;;7380908;19;20014;-69
2022/11/10 08:35:54;;;;;;;10.65;3.65;;;10.60;26.90;;;;;;7362625;19;20013;-70
2022/11/10 08:38:25;;;;;;;6.95;3.67;;;10.70;26.00;;;;;;7361932;19;20013;-72
2022/11/10 08:41:00;;;;;;;5.45;3.10;;;10.80;25.50;;;;;;7361304;19;20193;-71
2022/11/10 08:43:30;;;;;;;9.57;3.60;;;10.80;23.60;;;;;;7359882;19;20014;-70
2022/11/10 08:46:00;;;;;;;6.57;3.45;;;11.00;22.70;;;;;;7362220;19;20015;-70
2022/11/10 08:48:30;;;;;;;6.45;3.20;;;11.10;22.80;;;;;;7383657;19;20014;-70
2022/11/10 08:51:01;;;;;;;6.22;3.15;;;11.10;22.80;;;;;;7360633;19;20010;-70
2022/11/10 08:53:31;;;;;;;9.15;3.40;;;11.30;22.50;;;;;;7356562;19;20011;-71
2022/11/10 08:56:04;;;;;;;8.48;3.50;;;11.40;21.10;;;;;;7361759;19;20017;-70
2022/11/10 08:58:33;;;;;;;13.30;4.00;;;11.50;20.00;;;;;;7364566;19;20079;-71
2022/11/10 09:01:14;;;;;;;7.20;3.10;;;11.50;20.40;;;;;;7358616;19;20128;-70
2022/11/10 09:03:43;;;;;;;6.00;3.03;;;11.60;19.40;;;;;;7357183;19;20011;-71
2022/11/10 09:06:13;;;;;;;15.57;9.07;;;11.70;19.20;;;;;;7383838;19;20014;-71
2022/11/10 09:08:43;;;;;;;8.90;4.25;;;11.80;18.40;;;;;;7358623;19;20014;-71
2022/11/10 09:11:15;;;;;;;7.53;2.60;;;11.80;15.20;;;;;;7358428;19;20025;-71
2022/11/10 09:13:45;;;;;;;6.03;2.83;;;11.90;13.60;;;;;;7356946;19;20011;-71
2022/11/10 09:16:15;;;;;;;4.63;2.60;;;11.90;13.40;;;;;;7362336;19;20022;-71
2022/11/10 09:18:45;;;;;;;6.22;3.00;;;12.00;11.50;;;;;;7360360;19;20081;-71
2022/11/10 09:21:15;;;;;;;8.10;3.05;;;12.10;12.20;;;;;;7380113;19;20011;-71
2022/11/10 09:23:45;;;;;;;4.75;2.42;;;12.10;10.00;;;;;;7355056;19;20463;-71
2022/11/10 09:26:17;;;;;;;9.30;2.90;;;12.20;11.80;;;;;;7362047;19;20227;-71
2022/11/10 09:28:47;;;;;;;9.88;3.05;;;12.20;8.50;;;;;;7358989;19;20022;-71
2022/11/10 09:31:17;;;;;;;5.70;2.30;;;12.20;8.20;;;;;;7358412;19;20011;-71
2022/11/10 09:33:47;;;;;;;5.40;2.63;;;12.30;9.60;;;;;;7355654;19;20025;-72
2022/11/10 09:36:16;;;;;;;6.90;2.30;;;12.40;8.20;;;;;;7382665;19;20022;-71
2022/11/10 09:38:46;;;;;;;4.68;2.20;;;12.50;8.70;;;;;;7358370;19;20014;-72
2022/11/10 09:41:19;;;;;;;6.28;1.75;;;12.60;9.10;;;;;;7354427;19;20341;-70
2022/11/10 09:44:00;;;;;;;6.70;2.17;;;12.50;4.10;;;;;;7344800;19;20248;-71
2022/11/10 09:46:34;;;;;;;8.05;2.35;;;12.40;3.00;;;;;;7350104;19;20014;-71
2022/11/10 09:49:10;;;;;;;9.18;2.35;;;12.50;4.60;;;;;;7349672;19;20039;-71
2022/11/10 09:51:44;;;;;;;5.68;2.15;;;12.60;4.20;;;;;;7350951;19;20029;-71
2022/11/10 09:54:30;;;;;;;4.57;1.65;;;12.70;4.30;;;;;;7367673;19;20015;-71
2022/11/10 09:57:05;;;;;;;7.95;2.05;;;12.80;1.00;;;;;;7348312;19;20587;-71
2022/11/10 09:59:37;;;;;;;5.68;1.65;;;12.90;1.00;;;;;;7346679;19;20018;-70
2022/11/10 10:02:21;;;;;;;6.47;1.67;;;13.00;1.00;;;;;;7347580;19;20127;-71
2022/11/10 10:05:08;;;;;;;4.72;1.67;;;13.00;1.00;;;;;;7347557;19;20353;-71
2022/11/10 10:07:48;;;;;;;6.13;2.00;;;12.90;1.00;;;;;;7348906;19;20034;-71
2022/11/10 10:10:27;;;;;;;4.55;1.30;;;13.00;1.00;;;;;;7347293;19;20014;-70
2022/11/10 10:13:15;;;;;;;9.82;2.83;;;13.20;1.00;;;;;;7344234;19;20015;-71
2022/11/10 10:15:55;;;;;;;4.07;1.65;;;13.20;1.00;;;;;;7350763;19;20254;-72
2022/11/10 10:18:35;;;;;;;6.28;2.30;;;13.20;1.00;;;;;;7371006;19;20025;-71
2022/11/10 10:21:25;;;;;;;4.75;1.63;;;13.20;1.00;;;;;;7346778;19;20006;-72
2022/11/10 10:23:58;;;;;;;5.25;1.70;;;13.20;1.00;;;;;;7345431;19;20421;-72
2022/11/10 10:26:46;;;;;;;6.35;1.58;;;13.30;1.00;;;;;;7349266;19;20025;-72
2022/11/10 10:29:21;;;;;;;;;;;13.30;1.00;;;;;;7347646;19;20010;-70
2022/11/10 10:31:51;;;;;;;3.63;1.20;;;13.30;1.00;;;;;;7347383;19;20395;-71
2022/11/10 10:34:26;;;;;;;6.03;1.58;;;13.30;1.00;;;;;;7343648;19;20012;-71
2022/11/10 10:36:56;;;;;;;3.90;1.35;;;13.40;1.00;;;;;;7348552;19;20125;-72
2022/11/10 10:39:31;;;;;;;10.20;1.95;;;13.40;1.00;;;;;;7369207;19;20018;-71
2022/11/10 10:42:01;;;;;;;2.72;1.20;;;13.40;1.00;;;;;;7348556;19;20015;-70
2022/11/10 10:44:34;;;;;;;4.65;1.48;;;13.40;1.00;;;;;;7346975;19;20027;-70
2022/11/10 10:47:04;;;;;;;8.25;1.60;;;13.60;1.00;;;;;;7347461;19;20078;-71
2022/11/10 10:49:35;;;;;;;9.18;1.60;;;13.60;1.00;;;;;;7347793;19;20482;-72
2022/11/10 10:52:07;;;;;;;9.38;2.00;;;13.60;1.00;;;;;;7347734;19;20034;-71
2022/11/10 10:54:39;;;;;;;10.30;1.77;;;13.70;1.00;;;;;;7354815;19;20026;-72
2022/11/10 10:57:23;;;;;;;5.57;1.63;;;13.70;1.00;;;;;;7369120;19;20428;-70
2022/11/10 11:00:16;;;;;;;2.78;1.48;;;13.70;1.00;;;;;;7343557;19;20050;-71
2022/11/10 11:03:02;;;;;;;5.63;1.50;;;13.80;1.00;;;;;;7340814;19;20373;-70
2022/11/10 11:05:33;;;;;;;4.82;1.48;;;13.80;1.00;;;;;;7350241;19;20038;-72
2022/11/10 11:08:04;;;;;;;4.60;1.65;;;13.80;1.00;;;;;;7349181;19;20010;-72
2022/11/10 11:10:36;;;;;;;9.77;1.95;;;13.80;1.00;;;;;;7347344;19;20011;-71
2022/11/10 11:13:16;;;;;;;5.72;2.00;;;13.80;1.00;;;;;;7344944;19;20035;-71
2022/11/10 11:15:58;;;;;;;4.15;1.77;;;13.90;1.00;;;;;;7349434;19;20018;-70
2022/11/10 11:18:30;;;;;;;4.93;1.45;;;13.90;1.00;;;;;;7370498;19;20084;-70
2022/11/10 11:21:05;;;;;;;5.82;1.58;;;13.90;1.00;;;;;;7345997;19;20010;-70
2022/11/10 11:24:03;;;;;;;7.30;1.30;;;14.00;1.00;;;;;;7340843;19;20043;-71
2022/11/10 11:26:44;;;;;;;4.75;1.38;;;14.10;1.00;;;;;;7349489;19;20017;-69
2022/11/10 11:29:36;;;;;;;4.13;1.80;;;14.10;1.00;;;;;;7345647;19;20010;-70
2022/11/10 11:32:22;;;;;;;5.70;1.58;;;14.20;1.00;;;;;;7346439;19;20358;-71
2022/11/10 11:35:03;;;;;;;4.18;1.63;;;14.20;1.00;;;;;;7346836;19;20025;-70
2022/11/10 11:37:42;;;;;;;4.82;1.30;;;14.30;1.00;;;;;;7348580;19;20015;-70
2022/11/10 11:40:25;;;;;;;4.45;1.27;;;14.20;1.00;;;;;;7346739;19;20011;-70
2022/11/10 11:43:06;;;;;;;5.15;1.50;;;14.20;1.00;;;;;;7342948;19;20026;-70
2022/11/10 11:45:47;;;;;;;8.95;3.38;;;14.20;1.00;;;;;;7365403;19;20601;-75
2022/11/10 11:48:38;;;;;;;4.15;1.88;;;14.30;1.00;;;;;;7368997;19;20537;-70
2022/11/10 11:51:17;;;;;;;3.53;1.27;;;14.30;1.00;;;;;;7347052;19;20011;-71
2022/11/10 11:53:58;;;;;;;6.05;1.25;;;14.20;1.00;;;;;;7342823;19;20014;-70
2022/11/10 11:56:32;;;;;;;2.72;1.27;;;14.10;1.00;;;;;;7347702;19;20400;-71
2022/11/10 11:59:15;;;;;;;4.95;1.33;;;14.20;1.00;;;;;;7347026;19;20022;-70
2022/11/10 12:02:00;;;;;;;4.50;1.30;;;14.10;1.00;;;;;;7349631;19;20018;-71
2022/11/10 12:04:46;;;;;;;2.63;0.93;;;14.10;1.00;;;;;;7347144;19;20094;-71
2022/11/10 12:07:28;;;;;;;5.82;1.48;;;14.10;1.00;;;;;;7353277;19;20029;-69
2022/11/10 12:10:11;;;;;;;5.30;1.10;;;14.00;1.00;;;;;;7351020;19;20022;-70
2022/11/10 12:12:58;;;;;;;3.47;1.40;;;14.10;1.00;;;;;;7351102;19;20150;-72
2022/11/10 12:15:36;;;;;;;5.82;1.70;;;14.00;1.00;;;;;;7376254;19;20603;-71
2022/11/10 12:18:21;;;;;;;3.40;1.02;;;14.10;1.00;;;;;;7352190;19;20018;-71
2022/11/10 12:21:07;;;;;;;6.60;1.50;;;14.10;1.00;;;;;;7350656;19;20006;-70
2022/11/10 12:23:43;;;;;;;6.57;1.00;;;14.20;1.00;;;;;;7346903;19;20007;-72
2022/11/10 12:26:22;;;;;;;6.68;1.38;;;14.20;1.00;;;;;;7353338;19;20014;-71
2022/11/10 12:28:57;;;;;;;2.95;1.20;;;14.20;1.00;;;;;;7352001;19;20023;-71
2022/11/10 12:31:30;;;;;;;6.20;1.15;;;14.30;1.00;;;;;;7340581;19;20019;-71
2022/11/10 12:34:04;;;;;;;2.88;1.48;;;14.20;1.00;;;;;;7351171;19;20018;-71
2022/11/10 12:36:37;;;;;;;4.13;1.00;;;14.20;1.00;;;;;;7376319;19;20022;-70
2022/11/10 12:39:18;;;;;;;5.13;1.70;;;14.10;1.00;;;;;;7357593;19;20344;-71
2022/11/10 12:41:51;;;;;;;3.47;1.15;;;14.10;1.00;;;;;;7356407;19;20370;-71
2022/11/10 12:44:28;;;;;;;5.97;1.33;;;14.20;1.00;;;;;;7352585;19;20007;-71
2022/11/10 12:47:01;;;;;;;2.72;1.40;;;14.30;1.00;;;;;;7354443;19;20348;-69
2022/11/10 12:49:37;;;;;;;5.78;1.58;;;14.10;1.00;;;;;;7353354;19;20038;-69
2022/11/10 12:52:16;;;;;;;6.65;3.90;;;14.30;1.00;;;;;;7352730;19;20014;-69
2022/11/10 12:54:48;;;;;;;4.15;1.00;;;14.20;1.00;;;;;;7354266;19;20022;-71
2022/11/10 12:57:21;;;;;;;5.10;1.00;;;14.30;1.00;;;;;;7368241;19;20452;-70
2022/11/10 12:59:56;;;;;;;3.67;1.10;;;14.30;1.00;;;;;;7352120;19;20122;-70
2022/11/10 13:02:30;;;;;;;4.40;1.20;;;14.20;1.00;;;;;;7352617;19;20016;-70
2022/11/10 13:05:15;;;;;;;;;;;14.30;1.00;;;;;;7352784;19;20056;-69
2022/11/10 13:07:53;;;;;;;3.00;0.90;;;14.40;1.00;;;;;;7354592;19;19923;-70
2022/11/10 13:10:27;;;;;;;3.35;1.08;;;14.40;1.00;;;;;;7353052;19;20184;-69
2022/11/10 13:13:01;;;;;;;2.80;1.10;;;14.40;1.00;;;;;;7350738;19;20127;-70
2022/11/10 13:15:46;;;;;;;;;;;14.40;1.00;;;;;;7379853;19;20014;-70
2022/11/10 13:18:25;;;;;;;2.53;1.08;;;14.30;1.00;;;;;;7355137;19;19922;-68
2022/11/10 13:20:57;;;;;;;3.65;0.95;;;14.30;1.00;;;;;;7352426;19;20085;-69
2022/11/10 13:23:32;;;;;;;8.13;2.60;;;14.40;1.00;;;;;;7353428;19;20015;-69
2022/11/10 13:26:04;;;;;;;6.18;1.67;;;14.40;1.00;;;;;;7355315;19;20100;-69
2022/11/10 13:29:04;;;;;;;3.15;1.23;;;14.40;1.00;;;;;;7356570;19;20036;-69
2022/11/10 13:31:41;;;;;;;6.05;1.30;;;14.30;1.00;;;;;;7353738;19;20114;-70